createdAt,value
2023-06-02T00:01:25.759Z,102273.59
2023-06-02T00:03:54.871Z,102271.75
2023-06-02T00:06:21.488Z,102270.56
2023-06-02T00:08:47.976Z,102266.66
2023-06-02T00:11:14.466Z,102268.53
2023-06-02T00:13:41.191Z,102267.88
2023-06-02T00:16:08.019Z,102251.97
2023-06-02T00:18:37.285Z,102256.22
2023-06-02T00:21:06.535Z,102253.00
2023-06-02T00:23:33.903Z,102259.97
2023-06-02T00:26:01.949Z,102256.63
2023-06-02T00:28:29.125Z,102256.63
2023-06-02T00:30:56.000Z,102254.78
2023-06-02T00:33:22.598Z,102250.19
2023-06-02T00:35:49.086Z,102257.47
2023-06-02T00:38:15.702Z,102252.22
2023-06-02T00:40:42.129Z,102253.28
2023-06-02T00:43:08.596Z,102256.47
2023-06-02T00:45:35.249Z,102254.28
2023-06-02T00:48:02.426Z,102253.97
2023-06-02T00:50:29.603Z,102251.06
2023-06-02T01:11:33.882Z,102257.16
2023-06-02T01:14:00.904Z,102263.09
2023-06-02T01:16:28.269Z,102260.91
2023-06-02T01:18:55.969Z,102260.25
2023-06-02T01:21:27.338Z,102255.00
2023-06-02T01:23:58.317Z,102265.81
2023-06-02T01:26:25.047Z,102262.44
2023-06-02T01:28:51.422Z,102266.53
2023-06-02T01:31:21.474Z,102260.75
2023-06-02T01:34:09.383Z,102259.09
2023-06-02T01:36:38.671Z,102265.03
2023-06-02T01:39:07.533Z,102259.63
2023-06-02T01:41:38.330Z,102259.09
2023-06-02T01:44:05.222Z,102268.56
2023-06-02T01:46:31.889Z,102261.97
2023-06-02T01:48:58.382Z,102259.94
2023-06-02T01:51:24.823Z,102266.19
2023-06-02T01:53:51.311Z,102263.66
2023-06-02T01:56:17.824Z,102259.63
2023-06-02T01:58:44.201Z,102255.75
2023-06-02T02:01:10.807Z,102261.31
2023-06-02T02:03:39.680Z,102257.94
2023-06-02T02:06:06.503Z,102257.56
2023-06-02T02:08:32.928Z,102255.72
2023-06-02T02:11:00.692Z,102261.28
2023-06-02T02:13:27.167Z,102264.00
2023-06-02T02:15:53.602Z,102258.78
2023-06-02T02:18:21.652Z,102262.50
2023-06-02T02:20:48.220Z,102258.94
2023-06-02T02:23:14.643Z,102260.63
2023-06-02T02:25:41.093Z,102256.06
2023-06-02T02:28:07.435Z,102256.59
2023-06-02T02:30:33.885Z,102259.78
2023-06-02T02:33:03.670Z,102254.72
2023-06-02T02:35:30.377Z,102260.13
2023-06-02T02:37:56.833Z,102255.59
2023-06-02T02:40:23.457Z,102259.97
2023-06-02T02:42:49.851Z,102260.63
2023-06-02T02:45:16.371Z,102262.50
2023-06-02T02:47:42.901Z,102255.59
2023-06-02T02:50:10.030Z,102259.97
2023-06-02T02:52:37.017Z,102255.56
2023-06-02T02:55:03.724Z,102251.69
2023-06-02T02:57:30.701Z,102249.66
2023-06-02T02:59:57.166Z,102263.16
2023-06-02T03:02:23.601Z,102259.81
2023-06-02T03:04:52.967Z,102257.28
2023-06-02T03:07:19.687Z,102260.13
2023-06-02T03:09:46.075Z,102258.59
2023-06-02T03:12:12.767Z,102263.69
2023-06-02T03:14:39.179Z,102267.59
2023-06-02T03:17:06.273Z,102258.63
2023-06-02T03:19:32.791Z,102260.84
2023-06-02T03:21:59.307Z,102265.41
2023-06-02T03:24:25.817Z,102260.28
2023-06-02T03:26:53.855Z,102265.69
2023-06-02T03:29:20.857Z,102265.38
2023-06-02T03:31:47.978Z,102265.88
2023-06-02T03:34:14.491Z,102254.72
2023-06-02T03:36:40.940Z,102260.13
2023-06-02T03:39:08.762Z,102263.16
2023-06-02T03:41:36.492Z,102264.53
2023-06-02T03:44:03.575Z,102270.44
2023-06-02T03:46:30.009Z,102262.16
2023-06-02T03:48:56.852Z,102266.91
2023-06-02T03:51:23.357Z,102260.97
2023-06-02T03:53:53.005Z,102266.56
2023-06-02T03:56:21.182Z,102258.94
2023-06-02T03:58:47.622Z,102268.59
2023-06-02T04:01:14.041Z,102262.00
2023-06-02T04:03:42.697Z,102262.16
2023-06-02T04:06:09.886Z,102256.59
2023-06-02T04:08:37.116Z,102255.41
2023-06-02T04:11:04.128Z,102262.69
2023-06-02T04:13:30.781Z,102262.84
2023-06-02T04:15:57.319Z,102262.16
2023-06-02T04:18:23.811Z,102265.03
2023-06-02T04:20:50.328Z,102267.41
2023-06-02T04:23:16.934Z,102274.81
2023-06-02T04:25:43.433Z,102268.97
2023-06-02T04:28:09.838Z,102271.97
2023-06-02T04:30:39.798Z,102279.22
2023-06-02T04:33:06.460Z,102273.31
2023-06-02T04:35:32.943Z,102274.50
2023-06-02T04:37:59.438Z,102281.59
2023-06-02T04:40:25.879Z,102279.03
2023-06-02T04:42:52.270Z,102277.88
2023-06-02T04:45:21.736Z,102285.31
2023-06-02T04:47:48.766Z,102279.56
2023-06-02T04:50:15.405Z,102279.03
2023-06-02T04:52:45.289Z,102281.59
2023-06-02T04:55:12.969Z,102279.41
2023-06-02T04:57:39.611Z,102280.94
2023-06-02T05:00:07.831Z,102269.59
2023-06-02T05:02:34.648Z,102270.28
2023-06-02T05:05:01.093Z,102270.94
2023-06-02T05:07:28.179Z,102276.19
2023-06-02T05:09:54.474Z,102274.66
2023-06-02T05:12:21.032Z,102279.78
2023-06-02T05:14:48.105Z,102277.72
2023-06-02T05:17:15.168Z,102286.19
2023-06-02T05:19:42.736Z,102285.34
2023-06-02T05:22:09.123Z,102278.75
2023-06-02T05:24:35.780Z,102287.69
2023-06-02T05:27:02.206Z,102292.25
2023-06-02T05:29:28.647Z,102292.94
2023-06-02T05:31:55.082Z,102288.03
2023-06-02T05:34:21.539Z,102287.53
2023-06-02T05:36:48.030Z,102288.56
2023-06-02T05:39:14.481Z,102291.91
2023-06-02T05:41:41.177Z,102292.44
2023-06-02T05:44:07.674Z,102286.69
2023-06-02T05:46:34.125Z,102296.13
2023-06-02T05:49:00.642Z,102294.28
2023-06-02T05:51:27.154Z,102293.94
2023-06-02T05:53:53.702Z,102299.19
2023-06-02T05:56:20.138Z,102298.69
2023-06-02T05:58:48.005Z,102295.44
2023-06-02T06:01:14.448Z,102295.63
2023-06-02T06:03:40.936Z,102298.16
2023-06-02T06:06:09.428Z,102300.03
2023-06-02T06:08:36.525Z,102297.63
2023-06-02T06:11:03.819Z,102294.44
2023-06-02T06:13:30.284Z,102292.41
2023-06-02T06:15:56.792Z,102291.41
2023-06-02T06:18:23.408Z,102293.75
2023-06-02T06:20:49.785Z,102288.03
2023-06-02T06:23:16.507Z,102286.69
2023-06-02T06:25:42.884Z,102302.19
2023-06-02T06:28:09.288Z,102292.22
2023-06-02T06:30:36.318Z,102295.94
2023-06-02T06:33:02.741Z,102300.34
2023-06-02T06:35:31.073Z,102293.56
2023-06-02T06:37:57.844Z,102292.88
2023-06-02T06:40:24.455Z,102295.41
2023-06-02T06:42:50.896Z,102299.78
2023-06-02T06:45:17.447Z,102294.69
2023-06-02T06:47:43.985Z,102304.88
2023-06-02T06:50:11.052Z,102297.59
2023-06-02T06:52:37.337Z,102301.00
2023-06-02T06:55:04.132Z,102310.13
2023-06-02T06:57:30.577Z,102311.31
2023-06-02T06:59:57.028Z,102313.81
2023-06-02T07:02:23.604Z,102311.09
2023-06-02T07:04:50.010Z,102307.88
2023-06-02T07:07:16.554Z,102314.66
2023-06-02T07:09:43.457Z,102311.75
2023-06-02T07:12:09.929Z,102321.94
2023-06-02T07:14:36.401Z,102315.34
2023-06-02T07:17:02.897Z,102320.06
2023-06-02T07:19:29.381Z,102317.84
2023-06-02T07:21:55.954Z,102319.88
2023-06-02T07:24:22.455Z,102324.44
2023-06-02T07:26:48.879Z,102320.22
2023-06-02T07:29:16.289Z,102316.31
2023-06-02T07:31:44.770Z,102321.06
2023-06-02T07:34:11.444Z,102325.28
2023-06-02T07:36:39.383Z,102319.69
2023-06-02T07:39:06.046Z,102324.31
2023-06-02T07:41:32.568Z,102328.41
2023-06-02T07:43:59.217Z,102329.63
2023-06-02T07:46:25.993Z,102332.50
2023-06-02T07:48:52.438Z,102324.84
2023-06-02T07:51:18.860Z,102326.91
2023-06-02T07:53:45.442Z,102332.50
2023-06-02T07:56:11.948Z,102331.81
2023-06-02T07:58:38.373Z,102331.16
2023-06-02T08:01:05.175Z,102317.09
2023-06-02T08:03:31.740Z,102324.06
2023-06-02T08:05:58.390Z,102330.16
2023-06-02T08:08:24.947Z,102326.44
2023-06-02T08:10:52.546Z,102326.28
2023-06-02T08:13:18.983Z,102323.41
2023-06-02T08:15:47.766Z,102321.66
2023-06-02T08:18:17.724Z,102323.19
2023-06-02T08:20:46.398Z,102325.53
2023-06-02T08:23:13.021Z,102317.72
2023-06-02T08:25:39.967Z,102315.88
2023-06-02T08:28:10.915Z,102323.16
2023-06-02T08:30:38.628Z,102326.22
2023-06-02T08:33:10.169Z,102319.13
2023-06-02T08:35:38.009Z,102325.22
2023-06-02T08:38:08.150Z,102322.81
2023-06-02T08:40:40.035Z,102318.41
2023-06-02T08:43:08.211Z,102318.50
2023-06-02T08:45:34.906Z,102314.78
2023-06-02T08:48:06.693Z,102317.97
2023-06-02T08:50:36.198Z,102316.78
2023-06-02T08:53:04.594Z,102318.97
2023-06-02T08:55:31.283Z,102317.03
2023-06-02T08:57:57.853Z,102322.75
2023-06-02T09:00:24.401Z,102310.91
2023-06-02T09:02:51.073Z,102317.50
2023-06-02T09:05:17.783Z,102311.75
2023-06-02T09:07:47.615Z,102324.94
2023-06-02T09:10:41.991Z,102318.78
2023-06-02T09:13:28.530Z,102324.34
2023-06-02T09:16:03.542Z,102319.16
2023-06-02T09:18:30.990Z,102324.56
2023-06-02T09:21:01.118Z,102322.91
2023-06-02T09:24:12.176Z,102316.28
2023-06-02T09:26:48.870Z,102322.84
2023-06-02T09:29:15.422Z,102326.03
2023-06-02T09:31:53.553Z,102325.81
2023-06-02T09:34:23.006Z,102318.47
2023-06-02T09:36:55.045Z,102323.91
2023-06-02T09:39:50.146Z,102325.13
2023-06-02T09:42:18.988Z,102324.22
2023-06-02T09:45:07.430Z,102324.88
2023-06-02T09:47:39.050Z,102330.28
2023-06-02T09:50:06.475Z,102327.59
2023-06-02T09:52:33.854Z,102323.97
2023-06-02T09:55:02.331Z,102320.59
2023-06-02T09:57:29.351Z,102310.03
2023-06-02T09:59:58.629Z,102321.13
2023-06-02T10:02:25.091Z,102323.38
2023-06-02T10:04:51.597Z,102319.28
2023-06-02T10:07:42.058Z,102312.72
2023-06-02T10:10:11.676Z,102317.69
2023-06-02T10:12:55.421Z,102311.81
2023-06-02T10:15:55.225Z,102312.94
2023-06-02T10:18:49.046Z,102320.41
2023-06-02T10:21:34.375Z,102305.50
2023-06-02T10:24:38.966Z,102309.28
2023-06-02T10:27:16.672Z,102314.03
2023-06-02T10:29:43.403Z,102301.75
2023-06-02T10:32:42.229Z,102313.38
2023-06-02T10:35:09.054Z,102302.72
2023-06-02T10:37:37.584Z,102308.88
2023-06-02T10:40:05.969Z,102299.59
2023-06-02T10:42:32.954Z,102306.41
2023-06-02T10:45:17.864Z,102303.41
2023-06-02T10:47:44.994Z,102303.50
2023-06-02T10:50:15.152Z,102301.81
2023-06-02T10:53:00.223Z,102308.63
2023-06-02T10:55:28.475Z,102306.56
2023-06-02T10:58:07.477Z,102304.75
2023-06-02T11:00:34.528Z,102304.00
2023-06-02T11:03:01.948Z,102306.44
2023-06-02T11:05:30.122Z,102310.69
2023-06-02T11:08:24.375Z,102301.78
2023-06-02T11:10:59.025Z,102311.59
2023-06-02T11:13:29.454Z,102303.91
2023-06-02T11:16:02.044Z,102312.34
2023-06-02T11:18:32.476Z,102301.91
2023-06-02T11:21:16.096Z,102304.84
2023-06-02T11:23:43.214Z,102307.56
2023-06-02T11:26:12.741Z,102303.59
2023-06-02T11:28:39.136Z,102301.72
2023-06-02T11:31:16.167Z,102296.53
2023-06-02T11:33:50.666Z,102307.91
2023-06-02T11:36:19.148Z,102297.41
2023-06-02T11:38:45.644Z,102305.25
2023-06-02T11:41:13.876Z,102304.59
2023-06-02T11:43:50.164Z,102307.25
2023-06-02T11:46:18.212Z,102293.56
2023-06-02T11:48:45.865Z,102292.53
2023-06-02T11:51:14.596Z,102289.84
2023-06-02T11:53:48.310Z,102288.53
2023-06-02T11:56:16.728Z,102290.59
2023-06-02T11:58:44.803Z,102284.38
2023-06-02T12:01:19.361Z,102286.13
2023-06-02T12:03:54.913Z,102288.66
2023-06-02T12:06:22.430Z,102283.34
2023-06-02T12:08:48.993Z,102288.75
2023-06-02T12:11:19.699Z,102289.22
2023-06-02T12:14:03.131Z,102284.84
2023-06-02T12:16:30.544Z,102284.56
2023-06-02T12:19:16.772Z,102285.97
2023-06-02T12:21:44.599Z,102284.84
2023-06-02T12:24:11.535Z,102276.91
2023-06-02T12:26:46.990Z,102284.69
2023-06-02T12:29:14.656Z,102284.06
2023-06-02T12:31:41.412Z,102276.97
2023-06-02T12:34:08.604Z,102270.13
2023-06-02T12:36:36.470Z,102272.84
2023-06-02T12:39:05.829Z,102267.81
2023-06-02T12:41:33.501Z,102275.81
2023-06-02T12:43:59.937Z,102281.03
2023-06-02T12:46:29.507Z,102277.69
2023-06-02T12:48:58.556Z,102277.44
2023-06-02T12:51:25.721Z,102273.03
2023-06-02T12:53:52.295Z,102270.50
2023-06-02T12:56:18.802Z,102276.59
2023-06-02T12:58:45.522Z,102267.31
2023-06-02T13:01:11.962Z,102267.50
2023-06-02T13:03:38.500Z,102257.63
2023-06-02T13:06:09.716Z,102246.03
2023-06-02T13:08:39.458Z,102252.97
2023-06-02T13:11:05.926Z,102248.53
2023-06-02T13:13:32.273Z,102239.50
2023-06-02T13:15:58.862Z,102254.00
2023-06-02T13:18:25.750Z,102253.03
2023-06-02T13:20:52.247Z,102246.97
2023-06-02T13:23:19.728Z,102246.72
2023-06-02T13:25:46.425Z,102247.53
2023-06-02T13:28:13.140Z,102245.88
2023-06-02T13:30:39.520Z,102246.91
2023-06-02T13:33:06.254Z,102239.75
2023-06-02T13:35:32.906Z,102233.63
2023-06-02T13:37:59.336Z,102232.31
2023-06-02T13:40:29.416Z,102235.63
2023-06-02T13:42:57.011Z,102227.41
2023-06-02T13:45:23.534Z,102227.97
2023-06-02T13:47:50.017Z,102226.06
2023-06-02T13:50:18.537Z,102218.91
2023-06-02T13:52:45.042Z,102225.22
2023-06-02T13:55:11.464Z,102227.63
2023-06-02T13:57:37.915Z,102223.13
2023-06-02T14:00:04.968Z,102233.00
2023-06-02T14:02:32.160Z,102225.75
2023-06-02T14:04:58.566Z,102228.31
2023-06-02T14:07:25.132Z,102233.41
2023-06-02T14:09:51.740Z,102229.22
2023-06-02T14:12:18.274Z,102240.91
2023-06-02T14:14:44.575Z,102234.13
2023-06-02T14:17:11.028Z,102239.78
2023-06-02T14:19:37.397Z,102239.78
2023-06-02T14:22:04.034Z,102234.00
2023-06-02T14:24:30.987Z,102237.50
2023-06-02T14:26:57.730Z,102234.81
2023-06-02T14:29:24.626Z,102229.97
2023-06-02T14:31:51.160Z,102235.72
2023-06-02T14:34:17.653Z,102230.72
2023-06-02T14:36:44.272Z,102230.53
2023-06-02T14:39:10.725Z,102235.84
2023-06-02T14:41:37.194Z,102230.00
2023-06-02T14:44:03.508Z,102224.19
2023-06-02T14:46:29.893Z,102224.47
2023-06-02T14:48:56.239Z,102232.03
2023-06-02T14:51:22.775Z,102209.31
2023-06-02T14:53:49.204Z,102225.50
2023-06-02T14:56:16.461Z,102218.78
2023-06-02T14:58:43.094Z,102225.09
2023-06-02T15:01:09.563Z,102221.09
2023-06-02T15:03:37.414Z,102219.59
2023-06-02T15:06:05.307Z,102206.22
2023-06-02T15:08:31.897Z,102209.25
2023-06-02T15:10:58.342Z,102200.69
2023-06-02T15:13:24.731Z,102197.94
2023-06-02T15:15:51.912Z,102194.78
2023-06-02T15:18:18.409Z,102190.41
2023-06-02T15:20:46.822Z,102192.47
2023-06-02T15:23:13.300Z,102183.63
2023-06-02T15:25:39.758Z,102195.88
2023-06-02T15:28:06.180Z,102198.66
2023-06-02T15:30:32.621Z,102190.97
2023-06-02T15:33:01.253Z,102191.38
2023-06-02T15:35:28.166Z,102185.97
2023-06-02T15:37:54.842Z,102188.59
2023-06-02T15:40:21.338Z,102180.78
2023-06-02T15:42:47.720Z,102178.31
2023-06-02T15:45:14.231Z,102184.19
2023-06-02T15:47:41.070Z,102176.03
2023-06-02T15:50:08.368Z,102184.84
2023-06-02T15:52:34.789Z,102174.97
2023-06-02T15:55:01.437Z,102166.59
2023-06-02T15:57:27.951Z,102174.00
2023-06-02T15:59:55.194Z,102176.78
2023-06-02T16:02:21.793Z,102177.63
2023-06-02T16:04:48.226Z,102171.97
2023-06-02T16:07:14.615Z,102169.44
2023-06-02T16:09:41.321Z,102166.72
2023-06-02T16:12:08.342Z,102165.66
2023-06-02T16:14:34.800Z,102162.91
2023-06-02T16:17:03.919Z,102165.22
2023-06-02T16:19:30.500Z,102160.97
2023-06-02T16:21:56.986Z,102160.13
2023-06-02T16:24:23.465Z,102154.25
2023-06-02T16:26:49.904Z,102151.28
2023-06-02T16:29:16.414Z,102159.41
2023-06-02T16:31:42.796Z,102144.88
2023-06-02T16:34:09.480Z,102149.75
2023-06-02T16:36:36.427Z,102150.97
2023-06-02T16:39:03.670Z,102142.38
2023-06-02T16:41:30.049Z,102143.44
2023-06-02T16:43:56.502Z,102137.38
2023-06-02T16:46:23.056Z,102145.06
2023-06-02T16:48:49.716Z,102147.47
2023-06-02T16:51:16.085Z,102151.34
2023-06-02T16:53:42.517Z,102147.63
2023-06-02T16:56:08.849Z,102144.41
2023-06-02T16:58:36.572Z,102136.22
2023-06-02T17:01:03.575Z,102132.19
2023-06-02T17:03:30.474Z,102137.81
2023-06-02T17:05:56.932Z,102136.91
2023-06-02T17:08:23.487Z,102145.06
2023-06-02T17:10:50.085Z,102143.63
2023-06-02T17:13:16.559Z,102145.34
2023-06-02T17:15:43.068Z,102147.63
2023-06-02T17:18:09.637Z,102152.16
2023-06-02T17:20:36.056Z,102146.81
2023-06-02T17:23:02.348Z,102148.22
2023-06-02T17:25:28.778Z,102142.53
2023-06-02T17:27:55.257Z,102146.63
2023-06-02T17:30:21.803Z,102145.50
2023-06-02T17:32:48.178Z,102150.81
2023-06-02T17:35:14.555Z,102150.44
2023-06-02T17:37:41.380Z,102147.38
2023-06-02T17:40:08.753Z,102151.72
2023-06-02T17:42:35.517Z,102149.75
2023-06-02T17:45:02.794Z,102140.25
2023-06-02T17:47:29.176Z,102145.88
2023-06-02T17:49:56.929Z,102146.00
2023-06-02T17:52:23.468Z,102144.38
2023-06-02T17:54:50.156Z,102152.09
2023-06-02T17:57:17.049Z,102148.56
2023-06-02T17:59:46.509Z,102142.84
2023-06-02T18:02:13.824Z,102146.44
2023-06-02T18:04:40.684Z,102137.34
2023-06-02T18:07:07.336Z,102138.78
2023-06-02T18:09:34.363Z,102142.81
2023-06-02T18:12:01.375Z,102144.94
2023-06-02T18:14:27.747Z,102150.19
2023-06-02T18:16:54.269Z,102146.38
2023-06-02T18:19:21.329Z,102145.75
2023-06-02T18:21:47.806Z,102151.50
2023-06-02T18:24:14.273Z,102139.78
2023-06-02T18:26:40.663Z,102143.63
2023-06-02T18:29:07.143Z,102142.19
2023-06-02T18:31:33.555Z,102146.66
2023-06-02T18:34:00.201Z,102142.66
2023-06-02T18:36:26.605Z,102145.22
2023-06-02T18:38:53.191Z,102149.69
2023-06-02T18:41:20.045Z,102145.50
2023-06-02T18:43:46.404Z,102142.97
2023-06-02T18:46:12.902Z,102142.59
2023-06-02T18:48:39.777Z,102136.94
2023-06-02T18:51:06.716Z,102138.88
2023-06-02T18:53:33.555Z,102123.13
2023-06-02T18:55:59.959Z,102133.69
2023-06-02T18:58:26.408Z,102129.47
2023-06-02T19:00:52.886Z,102128.03
2023-06-02T19:03:19.778Z,102124.66
2023-06-02T19:05:46.483Z,102120.47
2023-06-02T19:08:12.854Z,102123.63
2023-06-02T19:10:39.388Z,102125.31
2023-06-02T19:13:05.953Z,102126.38
2023-06-02T19:15:32.570Z,102120.94
2023-06-02T19:17:59.097Z,102129.38
2023-06-02T19:20:25.548Z,102127.91
2023-06-02T19:22:52.328Z,102126.47
2023-06-02T19:25:18.808Z,102128.34
2023-06-02T19:27:45.288Z,102126.47
2023-06-02T19:30:12.161Z,102128.63
2023-06-02T19:32:47.233Z,102136.59
2023-06-02T19:35:14.151Z,102132.63
2023-06-02T19:37:41.166Z,102136.81
2023-06-02T19:40:09.131Z,102137.44
2023-06-02T19:42:35.911Z,102146.75
2023-06-02T19:45:02.482Z,102142.13
2023-06-02T19:47:29.023Z,102141.28
2023-06-02T19:49:55.379Z,102146.53
2023-06-02T19:52:21.926Z,102144.00
2023-06-02T19:54:48.338Z,102155.16
2023-06-02T19:57:14.950Z,102157.69
2023-06-02T19:59:41.284Z,102150.78
2023-06-02T20:02:07.987Z,102164.00
2023-06-02T20:04:35.514Z,102159.59
2023-06-02T20:07:04.891Z,102168.41
2023-06-02T20:09:32.118Z,102166.97
2023-06-02T20:11:58.558Z,102169.28
2023-06-02T20:14:27.443Z,102173.28
2023-06-02T20:16:55.681Z,102179.59
2023-06-02T20:19:22.190Z,102192.00
2023-06-02T20:21:48.676Z,102185.47
2023-06-02T20:24:15.140Z,102190.72
2023-06-02T20:26:41.690Z,102185.69
2023-06-02T20:29:08.110Z,102183.56
2023-06-02T20:31:34.548Z,102182.06
2023-06-02T20:34:01.307Z,102185.66
2023-06-02T20:36:27.571Z,102183.75
2023-06-02T20:38:54.776Z,102187.13
2023-06-02T20:41:21.238Z,102182.94
2023-06-02T20:43:47.681Z,102181.66
2023-06-02T20:46:14.108Z,102187.97
2023-06-02T20:48:40.667Z,102179.56
2023-06-02T20:51:07.109Z,102175.19
2023-06-02T20:53:33.587Z,102175.59
2023-06-02T20:56:00.074Z,102177.66
2023-06-02T20:58:26.436Z,102176.63
2023-06-02T21:00:52.911Z,102182.28
2023-06-02T21:03:19.467Z,102185.44
2023-06-02T21:05:45.946Z,102187.72
2023-06-02T21:08:12.520Z,102193.59
2023-06-02T21:10:38.971Z,102195.69
2023-06-02T21:13:05.523Z,102191.69
2023-06-02T21:15:33.167Z,102187.28
2023-06-02T21:17:59.647Z,102192.31
2023-06-02T21:20:26.089Z,102190.22
2023-06-02T21:22:52.569Z,102193.34
2023-06-02T21:25:18.996Z,102185.13
2023-06-02T21:27:45.502Z,102188.09
2023-06-02T21:30:14.712Z,102182.00
2023-06-02T21:32:41.390Z,102181.56
2023-06-02T21:35:08.003Z,102189.94
2023-06-02T21:37:34.486Z,102194.56
2023-06-02T21:40:00.901Z,102200.44
2023-06-02T21:42:27.371Z,102196.22
2023-06-02T21:44:54.192Z,102200.56
2023-06-02T21:47:21.259Z,102195.72
2023-06-02T21:49:47.799Z,102193.63
2023-06-02T21:52:14.301Z,102197.19
2023-06-02T21:54:40.652Z,102197.38
2023-06-02T21:57:07.446Z,102205.75
2023-06-02T21:59:34.661Z,102203.44
2023-06-02T22:02:01.254Z,102209.69
2023-06-02T22:04:27.859Z,102213.22
2023-06-02T22:06:54.259Z,102214.06
2023-06-02T22:09:21.334Z,102210.09
2023-06-02T22:11:47.754Z,102203.38
2023-06-02T22:14:14.290Z,102212.38
2023-06-02T22:16:41.431Z,102213.22
2023-06-02T22:19:09.669Z,102215.72
2023-06-02T22:21:55.153Z,102211.72
2023-06-02T22:26:52.143Z,102214.41
2023-06-02T22:29:18.710Z,102225.72
2023-06-02T22:31:45.328Z,102223.38
2023-06-02T22:34:11.819Z,102226.09
2023-06-02T22:36:38.341Z,102231.31
2023-06-02T22:39:04.774Z,102230.69
2023-06-02T22:41:31.256Z,102229.00
2023-06-02T22:43:57.668Z,102230.63
2023-06-02T22:46:24.220Z,102230.38
2023-06-02T22:48:50.852Z,102226.38
2023-06-02T22:51:17.390Z,102230.16
2023-06-02T22:53:43.815Z,102228.22
2023-06-02T22:56:11.215Z,102228.41
2023-06-02T22:58:37.721Z,102227.38
2023-06-02T23:01:04.378Z,102228.81
2023-06-02T23:03:30.893Z,102225.91
2023-06-02T23:05:57.338Z,102227.31
2023-06-02T23:08:23.750Z,102229.41
2023-06-02T23:10:50.477Z,102231.88
2023-06-02T23:13:17.142Z,102236.66
2023-06-02T23:15:43.606Z,102241.44
2023-06-02T23:18:11.191Z,102241.84
2023-06-02T23:20:37.723Z,102237.00
2023-06-02T23:23:04.153Z,102235.31
2023-06-02T23:25:31.084Z,102242.78
2023-06-02T23:27:57.704Z,102241.13
2023-06-02T23:30:24.291Z,102236.91
2023-06-02T23:32:51.130Z,102241.91
2023-06-02T23:35:17.689Z,102239.56
2023-06-02T23:37:44.104Z,102240.81
2023-06-02T23:40:10.964Z,102234.72
2023-06-02T23:42:39.038Z,102244.31
2023-06-02T23:45:06.109Z,102243.66
2023-06-02T23:47:32.730Z,102243.03
2023-06-02T23:49:59.100Z,102243.56
2023-06-02T23:52:26.432Z,102240.41
2023-06-02T23:54:52.883Z,102242.88
2023-06-02T23:57:19.696Z,102243.06
2023-06-02T23:59:46.187Z,102245.78
